createdAt,value
2017-08-24T00:01:49.380Z,61.70
2017-08-24T00:03:59.072Z,58.80
2017-08-24T00:06:07.078Z,54.10
2017-08-24T00:08:14.591Z,55.57
2017-08-24T00:10:20.832Z,53.10
2017-08-24T00:12:27.044Z,57.10
2017-08-24T00:14:32.980Z,46.23
2017-08-24T00:16:39.578Z,53.87
2017-08-24T00:18:54.536Z,49.17
2017-08-24T00:21:04.080Z,43.97
2017-08-24T00:23:10.962Z,35.00
2017-08-24T00:25:18.128Z,34.80
2017-08-24T00:27:25.304Z,32.03
2017-08-24T00:29:32.656Z,38.77
2017-08-24T00:31:38.782Z,39.10
2017-08-24T00:35:58.878Z,33.87
2017-08-24T00:38:05.272Z,30.27
2017-08-24T00:40:12.269Z,28.30
2017-08-24T00:42:19.558Z,28.03
2017-08-24T00:44:25.841Z,25.10
2017-08-24T00:46:31.724Z,26.40
2017-08-24T00:48:38.337Z,23.57
2017-08-24T00:50:49.956Z,19.60
2017-08-24T00:52:59.421Z,20.80
2017-08-24T00:55:08.020Z,20.30
2017-08-24T00:57:14.940Z,17.60
2017-08-24T00:59:22.073Z,17.80
2017-08-24T01:01:31.279Z,20.60
2017-08-24T01:03:37.793Z,21.30
2017-08-24T01:05:49.498Z,18.87
2017-08-24T01:07:59.362Z,18.93
2017-08-24T01:10:07.122Z,16.17
2017-08-24T01:12:15.612Z,18.07
2017-08-24T01:14:22.172Z,18.40
2017-08-24T01:16:28.362Z,16.70
2017-08-24T01:18:34.357Z,16.33
2017-08-24T01:20:40.858Z,15.73
2017-08-24T01:22:54.196Z,14.50
2017-08-24T01:25:01.982Z,14.40
2017-08-24T01:27:10.084Z,15.23
2017-08-24T01:29:16.307Z,15.33
2017-08-24T01:31:22.633Z,15.07
2017-08-24T01:33:29.076Z,14.07
2017-08-24T01:35:35.244Z,13.40
2017-08-24T01:37:42.717Z,13.93
2017-08-24T01:39:54.610Z,12.80
2017-08-24T01:42:02.295Z,12.20
2017-08-24T01:44:08.492Z,12.43
2017-08-24T01:46:15.779Z,11.60
2017-08-24T01:48:23.515Z,12.23
2017-08-24T01:50:30.149Z,11.23
2017-08-24T01:52:37.764Z,11.37
2017-08-24T01:54:52.123Z,11.97
2017-08-24T01:57:03.454Z,11.40
2017-08-24T01:59:11.915Z,10.03
2017-08-24T02:01:19.131Z,10.23
2017-08-24T02:03:25.283Z,10.30
2017-08-24T02:05:31.895Z,10.10
2017-08-24T02:07:38.020Z,9.97
2017-08-24T02:09:51.317Z,10.33
2017-08-24T02:11:59.632Z,8.37
2017-08-24T02:14:06.334Z,9.40
2017-08-24T02:16:13.229Z,8.77
2017-08-24T02:18:21.108Z,9.80
2017-08-24T02:20:27.751Z,8.43
2017-08-24T02:22:34.651Z,8.77
2017-08-24T02:24:41.453Z,8.70
2017-08-24T02:26:47.847Z,8.40
2017-08-24T02:28:57.865Z,8.87
2017-08-24T02:31:05.122Z,7.90
2017-08-24T02:33:14.186Z,8.33
2017-08-24T02:35:19.919Z,8.23
2017-08-24T02:37:28.220Z,7.97
2017-08-24T02:39:34.573Z,9.60
2017-08-24T02:41:41.064Z,7.40
2017-08-24T02:43:55.087Z,7.80
2017-08-24T02:48:52.601Z,7.30
2017-08-24T02:51:01.111Z,7.00
2017-08-24T02:53:07.931Z,7.13
2017-08-24T02:55:16.660Z,7.40
2017-08-24T02:57:24.590Z,6.90
2017-08-24T02:59:30.391Z,6.67
2017-08-24T03:01:36.590Z,7.40
2017-08-24T03:03:43.286Z,7.53
2017-08-24T03:05:54.361Z,7.50
2017-08-24T03:08:03.886Z,7.20
2017-08-24T03:10:10.577Z,7.43
2017-08-24T03:12:17.413Z,6.47
2017-08-24T03:14:37.105Z,7.00
2017-08-24T03:20:13.144Z,6.63
2017-08-24T03:22:20.833Z,6.90
2017-08-24T03:24:32.408Z,6.30
2017-08-24T03:26:38.248Z,7.43
2017-08-24T03:28:49.798Z,7.20
2017-08-24T03:30:57.526Z,7.20
2017-08-24T03:33:06.503Z,6.87
2017-08-24T03:35:13.344Z,7.10
2017-08-24T03:37:18.907Z,7.30
2017-08-24T03:39:25.419Z,8.00
2017-08-24T03:41:32.420Z,8.47
2017-08-24T03:43:39.454Z,7.83
2017-08-24T03:45:54.553Z,8.27
2017-08-24T03:48:01.839Z,8.07
2017-08-24T03:50:10.041Z,8.20
2017-08-24T03:52:16.105Z,7.80
2017-08-24T03:54:22.047Z,7.40
2017-08-24T03:56:28.411Z,8.20
2017-08-24T03:58:34.767Z,8.10
2017-08-24T04:00:40.942Z,8.40
2017-08-24T04:02:54.497Z,9.37
2017-08-24T04:05:02.012Z,8.73
2017-08-24T04:07:08.743Z,8.40
2017-08-24T04:09:15.418Z,9.33
2017-08-24T04:11:22.331Z,9.37
2017-08-24T04:13:28.222Z,9.67
2017-08-24T04:15:34.640Z,9.70
2017-08-24T04:17:42.521Z,9.90
2017-08-24T04:19:55.470Z,10.00
2017-08-24T04:22:04.314Z,9.60
2017-08-24T04:24:09.976Z,9.53
2017-08-24T04:26:15.606Z,10.50
2017-08-24T04:28:23.309Z,9.80
2017-08-24T04:30:29.911Z,10.90
2017-08-24T04:32:36.555Z,10.80
2017-08-24T04:34:45.918Z,10.07
2017-08-24T04:36:58.533Z,9.87
2017-08-24T04:39:06.494Z,9.63
2017-08-24T04:41:13.218Z,9.47
2017-08-24T04:43:32.269Z,9.60
2017-08-24T04:45:37.850Z,9.23
2017-08-24T04:47:56.305Z,9.63
2017-08-24T04:50:11.183Z,9.47
2017-08-24T04:52:18.336Z,10.60
2017-08-24T04:54:26.157Z,10.73
2017-08-24T04:56:32.786Z,9.37
2017-08-24T04:58:45.669Z,9.80
2017-08-24T05:01:12.628Z,10.40
2017-08-24T05:03:22.985Z,9.80
2017-08-24T05:05:30.441Z,10.50
2017-08-24T05:07:38.529Z,9.60
2017-08-24T05:09:55.094Z,9.93
2017-08-24T05:12:03.546Z,10.57
2017-08-24T05:14:13.535Z,10.63
2017-08-24T05:16:20.566Z,10.47
2017-08-24T05:18:27.675Z,9.60
2017-08-24T05:20:35.943Z,9.87
2017-08-24T05:22:42.179Z,8.93
2017-08-24T05:24:52.470Z,8.33
2017-08-24T05:26:59.755Z,9.67
2017-08-24T05:29:05.543Z,8.53
2017-08-24T05:31:11.364Z,8.90
2017-08-24T05:33:20.761Z,8.57
2017-08-24T05:35:28.190Z,8.33
2017-08-24T05:37:34.922Z,7.93
2017-08-24T05:39:41.468Z,7.90
2017-08-24T05:41:51.252Z,9.23
2017-08-24T05:43:59.485Z,8.67
2017-08-24T05:46:06.019Z,7.83
2017-08-24T05:48:11.944Z,7.70
2017-08-24T05:50:18.290Z,7.57
2017-08-24T05:52:24.400Z,6.90
2017-08-24T05:54:30.507Z,7.73
2017-08-24T05:56:36.069Z,7.60
2017-08-24T05:58:48.635Z,7.20
2017-08-24T06:00:57.554Z,7.30
2017-08-24T06:03:04.037Z,9.00
2017-08-24T06:05:11.176Z,7.53
2017-08-24T06:07:18.820Z,6.83
2017-08-24T06:09:24.622Z,7.83
2017-08-24T06:11:30.387Z,8.50
2017-08-24T06:13:36.440Z,7.90
2017-08-24T06:15:42.992Z,7.10
2017-08-24T06:17:52.612Z,7.37
2017-08-24T06:19:59.611Z,7.07
2017-08-24T06:22:05.433Z,6.57
2017-08-24T06:24:12.367Z,7.53
2017-08-24T06:26:17.961Z,7.83
2017-08-24T06:28:25.544Z,7.83
2017-08-24T06:30:32.111Z,8.37
2017-08-24T06:32:38.347Z,8.47
2017-08-24T06:34:48.009Z,7.27
2017-08-24T06:39:07.909Z,7.63
2017-08-24T06:41:18.215Z,7.10
2017-08-24T06:43:25.683Z,6.97
2017-08-24T06:45:31.892Z,8.37
2017-08-24T06:47:37.657Z,7.60
2017-08-24T06:49:50.857Z,6.53
2017-08-24T06:51:57.938Z,7.13
2017-08-24T06:54:03.586Z,7.07
2017-08-24T06:56:09.201Z,7.10
2017-08-24T06:58:17.576Z,6.70
2017-08-24T07:00:24.421Z,7.80
2017-08-24T07:02:31.482Z,6.23
2017-08-24T07:04:38.901Z,6.60
2017-08-24T07:06:49.816Z,7.03
2017-08-24T07:08:58.093Z,6.20
2017-08-24T07:11:05.232Z,5.70
2017-08-24T07:13:11.725Z,6.43
2017-08-24T07:15:18.565Z,5.97
2017-08-24T07:17:26.169Z,6.67
2017-08-24T07:19:32.528Z,7.87
2017-08-24T07:21:40.123Z,5.80
2017-08-24T07:23:54.250Z,6.80
2017-08-24T07:26:02.268Z,5.83
2017-08-24T07:28:09.170Z,5.53
2017-08-24T07:30:19.013Z,6.27
2017-08-24T07:32:33.421Z,5.90
2017-08-24T07:34:43.781Z,7.30
2017-08-24T07:36:52.905Z,7.23
2017-08-24T07:39:01.553Z,6.50
2017-08-24T07:41:07.384Z,6.70
2017-08-24T07:43:13.599Z,5.83
2017-08-24T07:45:22.400Z,6.10
2017-08-24T07:47:30.109Z,6.27
2017-08-24T07:49:39.126Z,5.70
2017-08-24T07:51:52.188Z,7.60
2017-08-24T07:54:00.958Z,6.50
2017-08-24T07:56:08.558Z,5.80
2017-08-24T07:58:15.390Z,6.10
2017-08-24T08:00:23.012Z,6.00
2017-08-24T08:02:29.633Z,6.07
2017-08-24T08:04:36.709Z,6.10
2017-08-24T08:06:43.377Z,6.10
2017-08-24T08:08:54.433Z,7.10
2017-08-24T08:11:01.811Z,6.90
2017-08-24T08:13:09.656Z,5.37
2017-08-24T08:15:16.823Z,6.17
2017-08-24T08:17:22.270Z,6.10
2017-08-24T08:19:28.236Z,6.60
2017-08-24T08:21:34.376Z,6.37
2017-08-24T08:23:40.061Z,6.87
2017-08-24T08:25:45.836Z,6.60
2017-08-24T08:27:58.690Z,6.10
2017-08-24T08:30:05.134Z,6.87
2017-08-24T08:32:11.683Z,6.13
2017-08-24T08:34:18.034Z,5.70
2017-08-24T08:36:23.847Z,5.47
2017-08-24T08:38:29.811Z,6.00
2017-08-24T08:40:36.980Z,6.63
2017-08-24T08:42:42.812Z,6.57
2017-08-24T08:44:51.007Z,5.73
2017-08-24T08:47:01.538Z,5.60
2017-08-24T08:49:07.191Z,6.10
2017-08-24T08:51:13.563Z,5.30
2017-08-24T08:53:26.196Z,6.80
2017-08-24T08:55:31.968Z,4.73
2017-08-24T08:57:38.709Z,6.20
2017-08-24T08:59:48.961Z,5.93
2017-08-24T09:01:56.010Z,6.00
2017-08-24T09:04:01.825Z,5.67
2017-08-24T09:06:08.662Z,7.50
2017-08-24T09:08:16.143Z,5.97
2017-08-24T09:10:22.998Z,6.80
2017-08-24T09:12:30.366Z,6.67
2017-08-24T09:14:38.122Z,6.40
2017-08-24T09:16:45.669Z,7.30
2017-08-24T09:18:57.629Z,7.20
2017-08-24T09:21:06.563Z,5.80
2017-08-24T09:23:13.018Z,7.00
2017-08-24T09:25:19.438Z,6.60
2017-08-24T09:27:25.168Z,7.40
2017-08-24T09:29:31.613Z,6.27
2017-08-24T09:31:37.721Z,6.40
2017-08-24T09:33:44.059Z,5.90
2017-08-24T09:35:52.680Z,5.53
2017-08-24T09:38:00.509Z,6.30
2017-08-24T09:40:06.280Z,7.57
2017-08-24T09:42:12.862Z,7.80
2017-08-24T09:44:19.532Z,7.30
2017-08-24T09:46:25.540Z,6.30
2017-08-24T09:48:32.804Z,7.33
2017-08-24T09:50:38.907Z,7.10
2017-08-24T09:52:51.196Z,5.20
2017-08-24T09:54:57.363Z,6.50
2017-08-24T09:57:04.812Z,5.87
2017-08-24T09:59:11.452Z,5.57
2017-08-24T10:01:18.508Z,5.00
2017-08-24T10:03:24.575Z,5.70
2017-08-24T10:05:30.284Z,5.40
2017-08-24T10:07:39.306Z,5.60
2017-08-24T10:09:49.598Z,5.33
2017-08-24T10:14:09.535Z,7.00
2017-08-24T10:16:15.801Z,5.80
2017-08-24T10:18:22.385Z,5.50
2017-08-24T10:20:29.215Z,5.83
2017-08-24T10:22:36.017Z,5.90
2017-08-24T10:24:50.003Z,6.87
2017-08-24T10:26:59.288Z,6.00
2017-08-24T10:29:05.977Z,7.53
2017-08-24T10:31:11.808Z,5.77
2017-08-24T10:33:17.904Z,6.17
2017-08-24T10:35:24.252Z,5.93
2017-08-24T10:37:30.030Z,5.90
2017-08-24T10:39:36.557Z,5.43
2017-08-24T10:41:44.903Z,5.53
2017-08-24T10:43:53.422Z,5.70
2017-08-24T10:46:00.286Z,6.40
2017-08-24T10:48:07.835Z,5.70
2017-08-24T10:50:13.701Z,5.53
2017-08-24T10:52:19.717Z,5.90
2017-08-24T10:54:29.245Z,7.33
2017-08-24T10:56:35.049Z,8.00
2017-08-24T10:58:44.047Z,7.77
2017-08-24T11:00:55.552Z,7.37
2017-08-24T11:03:04.000Z,7.37
2017-08-24T11:05:11.629Z,7.10
2017-08-24T11:07:24.599Z,7.90
2017-08-24T11:09:31.666Z,8.43
2017-08-24T11:11:37.775Z,7.70
2017-08-24T11:13:48.312Z,8.30
2017-08-24T11:15:59.023Z,8.57
2017-08-24T11:18:12.157Z,10.40
2017-08-24T11:20:19.769Z,10.73
2017-08-24T11:22:26.797Z,10.03
2017-08-24T11:24:34.075Z,12.07
2017-08-24T11:26:41.923Z,9.93
2017-08-24T11:28:58.206Z,10.60
2017-08-24T11:31:07.325Z,9.87
2017-08-24T11:33:13.865Z,9.53
2017-08-24T11:35:23.530Z,11.00
2017-08-24T11:37:31.519Z,10.00
2017-08-24T11:39:41.705Z,11.30
2017-08-24T11:41:54.269Z,10.43
2017-08-24T11:44:00.088Z,9.93
2017-08-24T11:46:06.617Z,10.30
2017-08-24T11:48:13.415Z,10.67
2017-08-24T11:50:19.630Z,11.60
2017-08-24T11:52:27.726Z,10.30
2017-08-24T11:54:34.916Z,10.57
2017-08-24T11:56:40.830Z,10.20
2017-08-24T11:58:52.524Z,10.10
2017-08-24T12:01:03.955Z,10.17
2017-08-24T12:03:13.980Z,10.40
2017-08-24T12:05:22.480Z,11.03
2017-08-24T12:07:29.164Z,10.37
2017-08-24T12:09:35.629Z,10.40
2017-08-24T12:11:44.211Z,10.80
2017-08-24T12:13:53.859Z,10.50
2017-08-24T12:16:02.123Z,9.80
2017-08-24T12:18:08.256Z,10.70
2017-08-24T12:20:16.514Z,10.60
2017-08-24T12:22:22.275Z,11.30
2017-08-24T12:24:28.335Z,10.73
2017-08-24T12:26:34.904Z,10.03
2017-08-24T12:28:42.433Z,11.07
2017-08-24T12:30:51.942Z,9.87
2017-08-24T12:32:57.903Z,11.80
2017-08-24T12:35:04.286Z,9.93
2017-08-24T12:37:11.840Z,11.23
2017-08-24T12:39:18.811Z,11.20
2017-08-24T12:41:24.456Z,10.90
2017-08-24T12:43:30.367Z,11.67
2017-08-24T12:45:36.050Z,10.57
2017-08-24T12:47:44.846Z,10.50
2017-08-24T12:49:57.497Z,11.00
2017-08-24T12:52:05.044Z,10.57
2017-08-24T12:54:12.159Z,10.30
2017-08-24T12:56:18.668Z,11.20
2017-08-24T12:58:25.027Z,10.87
2017-08-24T13:00:31.626Z,12.10
2017-08-24T13:02:38.057Z,10.57
2017-08-24T13:04:46.943Z,11.70
2017-08-24T13:06:56.940Z,10.10
2017-08-24T13:09:02.802Z,10.63
2017-08-24T13:11:09.886Z,9.77
2017-08-24T13:13:18.193Z,9.93
2017-08-24T13:15:25.227Z,10.23
2017-08-24T13:17:31.900Z,10.70
2017-08-24T13:19:38.318Z,10.00
2017-08-24T13:21:47.172Z,10.00
2017-08-24T13:23:58.132Z,10.17
2017-08-24T13:26:05.098Z,9.80
2017-08-24T13:28:11.317Z,10.40
2017-08-24T13:30:19.370Z,9.70
2017-08-24T13:32:27.527Z,9.60
2017-08-24T13:34:34.852Z,9.60
2017-08-24T13:36:42.457Z,10.63
2017-08-24T13:38:52.785Z,9.60
2017-08-24T13:40:59.506Z,10.00
2017-08-24T13:43:06.952Z,9.37
2017-08-24T13:45:13.321Z,9.30
2017-08-24T13:47:20.617Z,9.13
2017-08-24T13:49:29.816Z,9.43
2017-08-24T13:51:38.431Z,9.67
2017-08-24T13:53:49.893Z,9.80
2017-08-24T13:55:56.074Z,8.73
2017-08-24T13:58:04.834Z,9.70
2017-08-24T14:00:14.447Z,8.80
2017-08-24T14:02:21.516Z,8.83
2017-08-24T14:04:27.768Z,9.27
2017-08-24T14:06:40.260Z,8.60
2017-08-24T14:11:07.863Z,8.83
2017-08-24T14:13:16.564Z,8.53
2017-08-24T14:15:22.641Z,8.60
2017-08-24T14:17:30.859Z,8.63
2017-08-24T14:19:40.855Z,8.40
2017-08-24T14:21:51.839Z,8.47
2017-08-24T14:24:00.558Z,8.67
2017-08-24T14:26:10.147Z,8.17
2017-08-24T14:28:17.320Z,7.60
2017-08-24T14:30:23.971Z,8.40
2017-08-24T14:32:41.054Z,7.23
2017-08-24T14:34:49.068Z,7.93
2017-08-24T14:36:56.520Z,7.27
2017-08-24T14:39:05.207Z,7.90
2017-08-24T14:41:14.988Z,7.33
2017-08-24T14:43:23.156Z,7.10
2017-08-24T14:45:31.329Z,7.77
2017-08-24T14:47:40.439Z,8.00
2017-08-24T14:49:48.796Z,7.87
2017-08-24T14:51:56.981Z,8.10
2017-08-24T14:54:04.523Z,7.33
2017-08-24T14:56:17.615Z,7.67
2017-08-24T14:58:23.895Z,6.80
2017-08-24T15:00:39.649Z,7.10
2017-08-24T15:02:48.540Z,7.50
2017-08-24T15:05:03.460Z,6.80
2017-08-24T15:07:22.759Z,6.80
2017-08-24T15:09:46.514Z,7.13
2017-08-24T15:12:00.866Z,6.33
2017-08-24T15:14:09.410Z,6.40
2017-08-24T15:16:16.492Z,7.30
2017-08-24T15:18:22.654Z,7.10
2017-08-24T15:20:28.493Z,6.80
2017-08-24T15:22:37.741Z,6.00
2017-08-24T15:24:49.289Z,6.67
2017-08-24T15:26:59.847Z,6.50
2017-08-24T15:29:09.267Z,6.10
2017-08-24T15:31:16.050Z,6.53
2017-08-24T15:33:21.783Z,6.63
2017-08-24T15:35:28.922Z,6.13
2017-08-24T15:37:41.203Z,5.83
2017-08-24T15:39:47.079Z,5.87
2017-08-24T15:41:53.911Z,6.50
2017-08-24T15:44:00.971Z,6.40
2017-08-24T15:46:06.934Z,5.90
2017-08-24T15:48:14.230Z,5.30
2017-08-24T15:50:21.095Z,6.30
2017-08-24T15:52:27.447Z,6.00
2017-08-24T15:54:33.184Z,5.40
2017-08-24T15:56:39.322Z,6.30
2017-08-24T15:58:48.973Z,5.50
2017-08-24T16:00:56.479Z,5.20
2017-08-24T16:03:02.671Z,5.30
2017-08-24T16:05:09.761Z,5.17
2017-08-24T16:07:16.873Z,5.70
2017-08-24T16:09:23.581Z,5.70
2017-08-24T16:11:31.939Z,5.70
2017-08-24T16:13:41.984Z,6.17
2017-08-24T16:15:50.525Z,5.40
2017-08-24T16:17:57.033Z,5.37
2017-08-24T16:20:07.532Z,5.13
2017-08-24T16:22:12.995Z,5.97
2017-08-24T16:24:18.967Z,5.10
2017-08-24T16:26:24.883Z,4.90
2017-08-24T16:28:30.284Z,5.30
2017-08-24T16:30:38.751Z,5.30
2017-08-24T16:32:44.807Z,5.07
2017-08-24T16:34:50.685Z,4.77
2017-08-24T16:36:58.488Z,4.97
2017-08-24T16:39:05.202Z,4.47
2017-08-24T16:41:12.269Z,4.97
2017-08-24T16:43:18.756Z,5.00
2017-08-24T16:45:25.112Z,4.33
2017-08-24T16:47:31.524Z,4.23
2017-08-24T16:49:41.562Z,4.40
2017-08-24T16:51:49.634Z,4.80
2017-08-24T16:53:57.497Z,5.17
2017-08-24T16:56:05.641Z,4.77
2017-08-24T16:58:13.590Z,5.10
2017-08-24T17:00:20.793Z,4.90
2017-08-24T17:02:27.281Z,4.90
2017-08-24T17:04:35.791Z,5.30
2017-08-24T17:06:44.216Z,5.40
2017-08-24T17:08:52.049Z,4.40
2017-08-24T17:11:00.385Z,4.93
2017-08-24T17:13:07.607Z,4.93
2017-08-24T17:15:13.996Z,4.87
2017-08-24T17:17:21.158Z,5.23
2017-08-24T17:19:27.521Z,5.07
2017-08-24T17:21:33.338Z,5.07
2017-08-24T17:23:41.416Z,4.30
2017-08-24T17:25:51.276Z,5.20
2017-08-24T17:28:00.971Z,4.77
2017-08-24T17:30:06.816Z,4.50
2017-08-24T17:32:13.020Z,4.97
2017-08-24T17:34:19.031Z,5.20
2017-08-24T17:36:26.957Z,5.13
2017-08-24T17:38:32.632Z,5.33
2017-08-24T17:40:38.390Z,4.63
2017-08-24T17:42:50.527Z,5.07
2017-08-24T17:45:02.393Z,5.13
2017-08-24T17:47:14.765Z,5.77
2017-08-24T17:49:22.017Z,6.07
2017-08-24T17:51:27.843Z,6.03
2017-08-24T17:53:34.563Z,5.80
2017-08-24T17:55:42.167Z,5.10
2017-08-24T17:57:55.035Z,5.57
2017-08-24T18:00:04.719Z,5.97
2017-08-24T18:02:15.351Z,210.30
2017-08-24T18:04:24.666Z,477.87
2017-08-24T18:06:40.207Z,499.73
2017-08-24T18:08:50.973Z,273.73
2017-08-24T18:11:05.252Z,232.73
2017-08-24T18:13:18.389Z,153.30
2017-08-24T18:15:29.938Z,132.70
2017-08-24T18:17:38.210Z,125.93
2017-08-24T18:19:48.741Z,109.13
2017-08-24T18:22:02.046Z,114.17
2017-08-24T18:24:09.861Z,520.23
2017-08-24T18:26:19.273Z,585.13
2017-08-24T18:28:30.673Z,491.20
2017-08-24T18:30:44.235Z,352.30
2017-08-24T18:32:58.657Z,304.03
2017-08-24T18:35:11.652Z,243.30
2017-08-24T18:37:18.736Z,247.97
2017-08-24T18:39:25.442Z,198.70
2017-08-24T18:41:33.291Z,183.77
2017-08-24T18:43:43.451Z,209.40
2017-08-24T18:45:54.242Z,215.63
2017-08-24T18:48:01.742Z,456.37
2017-08-24T18:50:13.212Z,404.03
2017-08-24T18:52:19.208Z,420.40
2017-08-24T18:54:25.904Z,468.17
2017-08-24T18:56:37.628Z,333.10
2017-08-24T18:58:50.370Z,240.77
2017-08-24T19:01:00.055Z,227.23
2017-08-24T19:03:14.641Z,235.30
2017-08-24T19:05:22.817Z,191.83
2017-08-24T19:07:29.386Z,188.50
2017-08-24T19:09:36.030Z,191.50
2017-08-24T19:11:45.974Z,162.53
2017-08-24T19:13:55.666Z,137.80
2017-08-24T19:16:03.533Z,133.70
2017-08-24T19:18:11.601Z,338.07
2017-08-24T19:20:23.358Z,455.90
2017-08-24T19:22:29.670Z,498.33
2017-08-24T19:24:37.460Z,430.17
2017-08-24T19:26:46.701Z,391.30
2017-08-24T19:28:55.537Z,294.03
2017-08-24T19:31:04.194Z,221.23
2017-08-24T19:33:11.510Z,209.90
2017-08-24T19:35:34.555Z,192.30
2017-08-24T19:37:45.492Z,154.07
2017-08-24T19:39:56.546Z,174.23
2017-08-24T19:42:06.568Z,87.70
2017-08-24T19:44:17.066Z,102.90
2017-08-24T19:46:30.145Z,106.50
2017-08-24T19:48:47.503Z,98.33
2017-08-24T19:51:18.013Z,91.30
2017-08-24T19:53:25.322Z,81.27
2017-08-24T19:55:31.403Z,75.53
2017-08-24T20:02:29.837Z,448.77
2017-08-24T20:04:38.008Z,440.47
2017-08-24T20:06:50.836Z,292.43
2017-08-24T20:08:58.152Z,260.13
2017-08-24T20:11:08.597Z,209.77
2017-08-24T20:13:18.213Z,198.93
2017-08-24T20:15:24.770Z,147.87
2017-08-24T20:17:31.479Z,148.67
2017-08-24T20:19:37.131Z,126.53
2017-08-24T20:21:44.862Z,124.13
2017-08-24T20:23:52.124Z,112.50
2017-08-24T20:26:10.594Z,124.67
2017-08-24T20:28:16.703Z,82.03
2017-08-24T20:30:22.931Z,80.63
2017-08-24T20:32:28.595Z,80.50
2017-08-24T20:34:35.772Z,87.80
2017-08-24T20:36:43.699Z,76.53
2017-08-24T20:38:51.636Z,72.57
2017-08-24T20:41:02.145Z,60.83
2017-08-24T20:43:10.220Z,57.30
2017-08-24T20:45:18.969Z,59.10
2017-08-24T20:47:27.455Z,53.90
2017-08-24T20:49:38.489Z,54.10
2017-08-24T20:51:51.602Z,49.20
2017-08-24T20:54:02.103Z,44.83
2017-08-24T20:56:12.312Z,45.63
2017-08-24T20:58:17.945Z,39.93
2017-08-24T21:00:26.812Z,33.77
2017-08-24T21:02:38.274Z,213.43
2017-08-24T21:04:59.602Z,312.03
2017-08-24T21:07:06.052Z,400.90
2017-08-24T21:09:24.409Z,414.27
2017-08-24T21:11:31.785Z,338.67
2017-08-24T21:13:38.738Z,277.57
2017-08-24T21:15:47.964Z,221.23
2017-08-24T21:17:59.267Z,192.57
2017-08-24T21:20:21.175Z,222.20
2017-08-24T21:22:33.236Z,168.30
2017-08-24T21:24:39.977Z,218.73
2017-08-24T21:26:47.936Z,308.80
2017-08-24T21:28:55.287Z,155.10
2017-08-24T21:31:12.128Z,169.37
2017-08-24T21:33:28.292Z,129.20
2017-08-24T21:35:35.039Z,98.90
2017-08-24T21:37:41.136Z,80.20
2017-08-24T21:39:49.060Z,67.33
2017-08-24T21:41:57.943Z,59.37
2017-08-24T21:44:04.202Z,52.90
2017-08-24T21:46:12.925Z,46.87
2017-08-24T21:48:56.614Z,53.83
2017-08-24T21:53:52.167Z,40.63
2017-08-24T21:56:28.856Z,38.13
2017-08-24T21:58:51.503Z,36.80
2017-08-24T22:01:03.892Z,39.60
2017-08-24T22:03:19.596Z,39.07
2017-08-24T22:05:32.810Z,37.13
2017-08-24T22:07:47.121Z,35.13
2017-08-24T22:09:56.317Z,28.30
2017-08-24T22:12:04.189Z,30.80
2017-08-24T22:14:11.837Z,26.63
2017-08-24T22:16:20.903Z,26.23
2017-08-24T22:18:29.086Z,24.20
2017-08-24T22:20:37.999Z,22.53
2017-08-24T22:22:47.175Z,26.00
2017-08-24T22:25:01.127Z,25.83
2017-08-24T22:27:07.937Z,24.10
2017-08-24T22:29:17.008Z,24.50
2017-08-24T22:31:24.313Z,21.80
2017-08-24T22:33:31.847Z,19.83
2017-08-24T22:35:38.433Z,19.90
2017-08-24T22:38:45.242Z,19.70
2017-08-24T22:40:53.326Z,18.00
2017-08-24T22:43:01.466Z,18.40
2017-08-24T22:45:10.500Z,19.30
2017-08-24T22:47:23.153Z,16.30
2017-08-24T22:50:19.234Z,18.13
2017-08-24T22:52:24.850Z,17.00
2017-08-24T23:01:54.253Z,15.60
2017-08-24T23:04:01.402Z,15.30
2017-08-24T23:06:10.135Z,13.80
2017-08-24T23:08:18.752Z,14.20
2017-08-24T23:10:25.770Z,14.63
2017-08-24T23:12:32.218Z,14.37
2017-08-24T23:14:38.483Z,14.13
2017-08-24T23:16:50.900Z,14.23
2017-08-24T23:19:00.025Z,13.50
2017-08-24T23:21:06.378Z,13.07
2017-08-24T23:23:12.352Z,12.03
2017-08-24T23:25:20.964Z,12.47
2017-08-24T23:27:26.840Z,12.67
2017-08-24T23:29:32.752Z,12.30
2017-08-24T23:31:38.899Z,11.90
2017-08-24T23:33:47.635Z,11.47
2017-08-24T23:35:55.231Z,11.60
2017-08-24T23:38:02.074Z,11.23
2017-08-24T23:40:29.832Z,11.50
2017-08-24T23:42:50.805Z,11.40
2017-08-24T23:45:36.376Z,11.60
2017-08-24T23:47:49.923Z,10.87
2017-08-24T23:50:13.535Z,11.60
2017-08-24T23:52:32.733Z,10.10
2017-08-24T23:54:39.149Z,10.23
2017-08-24T23:56:48.743Z,10.67
2017-08-24T23:58:58.719Z,9.87
